SKVP/VUP METAR and TAF weather

Enter ICAO airport designator
Station Type Date Time Source
SKVP METAR 2020/05/28 20:00 UTC NOAA

SKVP 282000Z 19006KT 9999 FEW020 34/22 A2985


Station Type Date Time Source
SKVP Decoded METAR 2020/05/28 20:00 UTC NOAA

Valledupar / Alfonso Lopez, Colombia (SKVP) 10-26N 073-15W
May 28, 2020 - 04:00 PM EDT / 2020.05.28 2000 UTC
Wind: from the S (190 degrees) at 7 MPH (6 KT):0
Visibility: greater than 7 mile(s):0
Sky conditions: mostly clear
Temperature: 93 F (34 C)
Heat index: 100.0 F (37.8 C):1
Dew Point: 71 F (22 C)
Relative Humidity: 49%
Pressure (altimeter): 29.85 in. Hg (1010 hPa)
ob: SKVP 282000Z 19006KT 9999 FEW020 34/22 A2985
cycle: 20

Station Type Date Time Source
SKVP TAF UTC NOAA

Error!

Example: see airport list